createdAt,value
2023-09-08T00:00:52.269Z,2.70
2023-09-08T00:03:22.919Z,2.10
2023-09-08T00:05:51.079Z,2.45
2023-09-08T00:08:18.614Z,2.05
2023-09-08T00:10:46.431Z,3.47
2023-09-08T00:13:14.083Z,3.15
2023-09-08T00:15:41.655Z,3.40
2023-09-08T00:18:09.528Z,4.00
2023-09-08T00:20:37.364Z,3.30
2023-09-08T00:23:04.980Z,3.15
2023-09-08T00:25:32.937Z,3.42
2023-09-08T00:28:00.421Z,2.67
2023-09-08T00:30:27.898Z,3.65
2023-09-08T00:32:55.817Z,2.78
2023-09-08T00:35:23.580Z,2.75
2023-09-08T00:37:51.186Z,3.35
2023-09-08T00:40:19.056Z,3.03
2023-09-08T00:42:46.624Z,2.45
2023-09-08T00:45:14.210Z,3.20
2023-09-08T00:47:42.128Z,3.08
2023-09-08T00:50:10.098Z,3.15
2023-09-08T00:52:37.723Z,4.47
2023-09-08T00:55:05.959Z,4.45
2023-09-08T00:57:33.807Z,2.53
2023-09-08T01:00:01.586Z,3.42
2023-09-08T01:02:29.689Z,2.42
2023-09-08T01:04:57.346Z,2.75
2023-09-08T01:07:24.874Z,3.03
2023-09-08T01:09:52.958Z,3.05
2023-09-08T01:12:20.779Z,2.67
2023-09-08T01:14:48.373Z,2.62
2023-09-08T01:17:16.175Z,2.87
2023-09-08T01:19:44.501Z,2.65
2023-09-08T01:22:47.105Z,2.25
2023-09-08T01:25:25.848Z,2.42
2023-09-08T01:27:55.054Z,2.30
2023-09-08T01:30:24.983Z,3.30
2023-09-08T01:32:53.651Z,2.33
2023-09-08T01:35:21.336Z,2.97
2023-09-08T01:37:50.192Z,2.80
2023-09-08T01:40:17.874Z,2.40
2023-09-08T01:42:46.307Z,2.95
2023-09-08T01:45:14.078Z,3.08
2023-09-08T01:47:42.841Z,3.12
2023-09-08T01:50:10.458Z,3.25
2023-09-08T01:52:38.290Z,2.58
2023-09-08T01:55:06.312Z,2.92
2023-09-08T01:57:33.822Z,2.80
2023-09-08T02:00:01.595Z,3.03
2023-09-08T02:02:29.566Z,2.40
2023-09-08T02:04:57.484Z,2.58
2023-09-08T02:07:25.064Z,2.67
2023-09-08T02:09:52.647Z,2.30
2023-09-08T02:12:20.929Z,2.75
2023-09-08T02:14:48.664Z,3.47
2023-09-08T02:17:16.209Z,4.25
2023-09-08T02:19:46.001Z,3.22
2023-09-08T02:22:13.515Z,3.42
2023-09-08T02:24:41.037Z,2.37
2023-09-08T02:27:08.809Z,2.37
2023-09-08T02:29:37.277Z,2.37
2023-09-08T02:32:05.301Z,2.58
2023-09-08T02:34:39.567Z,2.95
2023-09-08T02:37:07.475Z,2.42
2023-09-08T02:39:35.676Z,2.15
2023-09-08T02:42:03.386Z,2.83
2023-09-08T02:44:31.056Z,2.92
2023-09-08T02:46:58.865Z,3.37
2023-09-08T02:49:26.781Z,2.58
2023-09-08T02:51:54.815Z,3.50
2023-09-08T02:54:22.668Z,3.28
2023-09-08T02:56:50.192Z,2.62
2023-09-08T02:59:19.875Z,2.58
2023-09-08T03:01:48.040Z,3.35
2023-09-08T03:04:15.589Z,2.50
2023-09-08T03:06:43.106Z,2.25
2023-09-08T03:09:10.970Z,2.75
2023-09-08T03:11:38.698Z,2.17
2023-09-08T03:14:08.287Z,2.47
2023-09-08T03:16:36.285Z,2.62
2023-09-08T03:19:04.894Z,2.95
2023-09-08T03:21:32.598Z,4.60
2023-09-08T03:24:00.708Z,2.35
2023-09-08T03:26:28.233Z,2.10
2023-09-08T03:28:55.689Z,3.15
2023-09-08T03:31:23.618Z,2.72
2023-09-08T03:33:52.373Z,3.42
2023-09-08T03:36:20.344Z,2.20
2023-09-08T03:38:48.125Z,2.95
2023-09-08T03:41:15.997Z,2.65
2023-09-08T03:43:43.578Z,2.58
2023-09-08T03:46:11.596Z,2.40
2023-09-08T03:48:39.196Z,2.78
2023-09-08T03:51:07.181Z,3.20
2023-09-08T03:53:35.390Z,2.92
2023-09-08T03:56:03.249Z,2.97
2023-09-08T03:58:30.757Z,2.92
2023-09-08T04:00:58.843Z,3.58
2023-09-08T04:03:26.830Z,3.55
2023-09-08T04:05:54.592Z,2.70
2023-09-08T04:08:22.583Z,2.62
2023-09-08T04:10:50.408Z,3.10
2023-09-08T04:13:18.109Z,2.62
2023-09-08T04:15:45.697Z,3.15
2023-09-08T04:18:13.606Z,3.40
2023-09-08T04:20:41.272Z,3.30
2023-09-08T04:23:08.806Z,3.87
2023-09-08T04:25:37.670Z,2.62
2023-09-08T04:28:05.849Z,3.03
2023-09-08T04:30:33.982Z,2.85
2023-09-08T04:33:02.303Z,3.72
2023-09-08T04:35:29.967Z,3.15
2023-09-08T04:37:57.553Z,4.15
2023-09-08T04:40:25.359Z,2.67
2023-09-08T04:42:54.419Z,3.12
2023-09-08T04:45:23.348Z,3.20
2023-09-08T04:47:51.762Z,3.92
2023-09-08T04:50:19.572Z,2.72
2023-09-08T04:52:47.450Z,4.47
2023-09-08T04:55:15.431Z,3.28
2023-09-08T04:57:42.954Z,4.05
2023-09-08T05:00:12.955Z,4.05
2023-09-08T05:02:40.935Z,3.80
2023-09-08T05:05:09.203Z,3.05
2023-09-08T05:07:37.166Z,4.30
2023-09-08T05:10:05.435Z,3.60
2023-09-08T05:12:35.797Z,4.00
2023-09-08T05:15:08.020Z,3.87
2023-09-08T05:17:36.877Z,2.83
2023-09-08T05:20:04.850Z,3.65
2023-09-08T05:22:32.513Z,3.80
2023-09-08T05:25:00.848Z,4.15
2023-09-08T05:27:28.449Z,4.18
2023-09-08T05:29:56.031Z,4.47
2023-09-08T05:32:23.839Z,3.33
2023-09-08T05:34:51.673Z,4.57
2023-09-08T05:37:19.409Z,3.95
2023-09-08T05:39:47.233Z,3.17
2023-09-08T05:42:14.777Z,4.60
2023-09-08T05:44:42.482Z,4.35
2023-09-08T05:47:11.455Z,3.97
2023-09-08T05:49:39.103Z,4.60
2023-09-08T05:52:06.816Z,4.20
2023-09-08T05:54:35.724Z,4.12
2023-09-08T05:57:03.409Z,4.70
2023-09-08T05:59:31.017Z,5.12
2023-09-08T06:01:59.071Z,4.15
2023-09-08T06:04:27.078Z,5.50
2023-09-08T06:06:54.883Z,3.92
2023-09-08T06:09:22.718Z,4.93
2023-09-08T06:11:50.775Z,4.15
2023-09-08T06:14:18.349Z,4.68
2023-09-08T06:16:46.554Z,4.50
2023-09-08T06:19:14.462Z,3.75
2023-09-08T06:21:42.352Z,4.35
2023-09-08T06:24:09.987Z,5.47
2023-09-08T06:26:38.496Z,4.30
2023-09-08T06:29:06.845Z,3.80
2023-09-08T06:31:34.512Z,4.45
2023-09-08T06:34:02.961Z,4.85
2023-09-08T06:36:30.720Z,3.78
2023-09-08T06:38:58.316Z,3.28
2023-09-08T06:41:28.299Z,5.03
2023-09-08T06:43:56.515Z,3.92
2023-09-08T06:46:25.094Z,3.00
2023-09-08T06:48:53.077Z,3.35
2023-09-08T06:51:20.596Z,3.20
2023-09-08T06:53:56.749Z,3.67
2023-09-08T06:56:24.894Z,4.65
2023-09-08T06:58:53.045Z,3.65
2023-09-08T07:01:21.099Z,3.62
2023-09-08T07:03:49.287Z,5.07
2023-09-08T07:06:17.739Z,4.50
2023-09-08T07:08:45.421Z,4.20
2023-09-08T07:11:15.237Z,4.47
2023-09-08T07:13:45.997Z,3.85
2023-09-08T07:16:14.538Z,4.15
2023-09-08T07:18:42.189Z,4.10
2023-09-08T07:21:10.069Z,4.70
2023-09-08T07:23:38.435Z,4.18
2023-09-08T07:26:07.086Z,4.90
2023-09-08T07:28:35.748Z,3.62
2023-09-08T07:31:05.441Z,4.55
2023-09-08T07:33:33.478Z,4.62
2023-09-08T07:36:08.270Z,4.62
2023-09-08T07:41:04.361Z,3.80
2023-09-08T07:43:32.598Z,4.60
2023-09-08T07:46:00.659Z,3.92
2023-09-08T07:48:28.344Z,4.62
2023-09-08T07:50:56.038Z,4.78
2023-09-08T07:53:23.832Z,4.43
2023-09-08T07:55:51.404Z,4.30
2023-09-08T07:58:19.392Z,4.28
2023-09-08T08:00:47.417Z,4.47
2023-09-08T08:03:15.385Z,5.25
2023-09-08T08:05:42.996Z,3.75
2023-09-08T08:08:10.911Z,3.55
2023-09-08T08:10:45.801Z,4.12
2023-09-08T08:13:33.361Z,4.25
2023-09-08T08:16:01.385Z,4.47
2023-09-08T08:18:29.017Z,4.82
2023-09-08T08:20:56.635Z,5.20
2023-09-08T08:23:24.456Z,5.40
2023-09-08T08:25:52.040Z,6.05
2023-09-08T08:28:19.612Z,4.37
2023-09-08T08:30:49.423Z,3.70
2023-09-08T08:33:17.164Z,3.97
2023-09-08T08:35:51.491Z,4.00
2023-09-08T08:38:19.645Z,5.87
2023-09-08T08:40:47.340Z,5.12
2023-09-08T08:43:15.002Z,5.22
2023-09-08T08:45:44.350Z,5.85
2023-09-08T08:48:13.710Z,5.40
2023-09-08T08:50:43.321Z,5.10
2023-09-08T08:53:11.732Z,5.40
2023-09-08T08:55:39.309Z,4.57
2023-09-08T08:58:10.013Z,4.43
2023-09-08T09:00:38.857Z,4.53
2023-09-08T09:03:14.020Z,4.62
2023-09-08T09:05:46.501Z,5.18
2023-09-08T09:08:17.459Z,4.57
2023-09-08T09:10:45.383Z,4.57
2023-09-08T09:13:12.980Z,5.30
2023-09-08T09:15:41.605Z,4.55
2023-09-08T09:18:10.207Z,6.30
2023-09-08T09:20:37.869Z,5.35
2023-09-08T09:23:05.391Z,4.50
2023-09-08T09:25:33.523Z,5.00
2023-09-08T09:28:03.628Z,4.60
2023-09-08T09:30:48.559Z,4.47
2023-09-08T09:33:17.068Z,5.87
2023-09-08T09:35:46.786Z,5.43
2023-09-08T09:38:14.919Z,4.03
2023-09-08T09:40:42.898Z,4.53
2023-09-08T09:43:12.490Z,5.65
2023-09-08T09:45:41.280Z,4.78
2023-09-08T09:48:10.440Z,4.25
2023-09-08T09:50:42.719Z,3.60
2023-09-08T09:53:15.583Z,5.10
2023-09-08T09:55:44.805Z,4.93
2023-09-08T09:58:13.404Z,5.25
2023-09-08T10:00:42.408Z,5.12
2023-09-08T10:03:11.989Z,4.78
2023-09-08T10:05:39.601Z,4.35
2023-09-08T10:08:07.608Z,4.57
2023-09-08T10:10:35.876Z,4.78
2023-09-08T10:13:07.410Z,4.03
2023-09-08T10:15:35.418Z,4.65
2023-09-08T10:18:06.124Z,4.50
2023-09-08T10:20:35.689Z,4.55
2023-09-08T10:23:10.036Z,4.62
2023-09-08T10:25:44.142Z,5.43
2023-09-08T10:28:14.094Z,4.65
2023-09-08T10:30:42.076Z,5.05
2023-09-08T10:33:12.748Z,4.80
2023-09-08T10:35:41.436Z,5.85
2023-09-08T10:38:28.957Z,4.80
2023-09-08T10:41:18.538Z,5.30
2023-09-08T10:43:47.442Z,5.12
2023-09-08T10:46:28.812Z,5.28
2023-09-08T10:49:03.533Z,4.32
2023-09-08T10:51:31.793Z,5.50
2023-09-08T10:53:59.499Z,5.37
2023-09-08T10:56:50.332Z,5.37
2023-09-08T10:59:18.313Z,4.90
2023-09-08T11:01:48.653Z,5.82
2023-09-08T11:04:20.311Z,5.03
2023-09-08T11:06:50.220Z,4.68
2023-09-08T11:09:17.772Z,5.72
2023-09-08T11:11:46.322Z,5.25
2023-09-08T11:14:14.547Z,4.75
2023-09-08T11:16:42.083Z,5.28
2023-09-08T11:19:11.154Z,6.07
2023-09-08T11:21:41.820Z,5.20
2023-09-08T11:24:10.748Z,4.47
2023-09-08T11:26:38.688Z,4.90
2023-09-08T11:29:06.668Z,4.28
2023-09-08T11:31:35.757Z,3.80
2023-09-08T11:34:06.517Z,4.03
2023-09-08T11:36:36.242Z,4.15
2023-09-08T11:39:07.169Z,4.53
2023-09-08T11:41:35.892Z,4.70
2023-09-08T11:44:03.578Z,4.75
2023-09-08T11:46:31.499Z,4.32
2023-09-08T11:48:59.706Z,4.57
2023-09-08T11:51:27.637Z,4.43
2023-09-08T11:53:55.260Z,4.22
2023-09-08T11:56:23.215Z,4.30
2023-09-08T11:58:51.268Z,4.60
2023-09-08T12:01:19.901Z,3.85
2023-09-08T12:03:54.826Z,4.43
2023-09-08T12:06:27.114Z,4.28
2023-09-08T12:08:56.530Z,3.58
2023-09-08T12:11:24.188Z,4.40
2023-09-08T12:13:51.784Z,4.22
2023-09-08T12:16:20.799Z,3.60
2023-09-08T12:18:49.837Z,4.22
2023-09-08T12:21:17.577Z,4.65
2023-09-08T12:23:50.327Z,4.70
2023-09-08T12:26:18.733Z,4.72
2023-09-08T12:28:47.889Z,4.30
2023-09-08T12:31:16.544Z,4.47
2023-09-08T12:33:45.173Z,4.22
2023-09-08T12:36:17.928Z,4.28
2023-09-08T12:38:53.041Z,4.82
2023-09-08T12:41:21.265Z,3.72
2023-09-08T12:43:48.886Z,4.40
2023-09-08T12:46:18.327Z,4.28
2023-09-08T12:48:46.185Z,4.03
2023-09-08T12:51:13.722Z,4.30
2023-09-08T12:53:41.345Z,4.10
2023-09-08T12:56:09.436Z,4.57
2023-09-08T12:58:37.239Z,4.32
2023-09-08T13:01:07.843Z,3.92
2023-09-08T13:03:35.785Z,4.40
2023-09-08T13:06:03.439Z,4.07
2023-09-08T13:08:31.161Z,4.32
2023-09-08T13:10:59.016Z,4.15
2023-09-08T13:13:27.943Z,4.28
2023-09-08T13:15:55.470Z,4.93
2023-09-08T13:18:23.374Z,4.50
2023-09-08T13:20:50.920Z,4.00
2023-09-08T13:23:18.530Z,4.43
2023-09-08T13:25:46.487Z,4.43
2023-09-08T13:28:14.018Z,3.80
2023-09-08T13:30:41.600Z,4.55
2023-09-08T13:33:09.835Z,4.15
2023-09-08T13:35:37.574Z,4.07
2023-09-08T13:38:05.294Z,4.22
2023-09-08T13:40:33.608Z,4.07
2023-09-08T13:43:01.604Z,3.47
2023-09-08T13:45:30.319Z,3.75
2023-09-08T13:47:58.650Z,4.35
2023-09-08T13:50:27.591Z,3.95
2023-09-08T13:52:57.446Z,4.00
2023-09-08T13:55:35.847Z,4.45
2023-09-08T13:58:09.103Z,4.50
2023-09-08T14:00:39.544Z,3.75
2023-09-08T14:03:12.805Z,3.85
2023-09-08T14:05:45.465Z,4.53
2023-09-08T14:08:18.367Z,4.53
2023-09-08T14:11:04.831Z,3.97
2023-09-08T14:13:38.488Z,4.12
2023-09-08T14:16:06.330Z,4.30
2023-09-08T14:18:34.486Z,3.80
2023-09-08T14:21:02.315Z,4.00
2023-09-08T14:23:30.197Z,3.92
2023-09-08T14:25:57.940Z,4.45
2023-09-08T14:28:26.980Z,4.30
2023-09-08T14:30:54.669Z,4.05
2023-09-08T14:33:22.237Z,3.75
2023-09-08T14:35:52.719Z,4.60
2023-09-08T14:38:20.495Z,3.95
2023-09-08T14:41:01.755Z,4.47
2023-09-08T14:43:30.609Z,3.87
2023-09-08T14:45:58.578Z,4.05
2023-09-08T14:48:26.481Z,4.18
2023-09-08T14:50:55.642Z,4.05
2023-09-08T14:53:23.696Z,4.07
2023-09-08T14:55:51.318Z,3.72
2023-09-08T14:58:19.210Z,4.45
2023-09-08T15:00:47.423Z,3.92
2023-09-08T15:03:16.192Z,3.53
2023-09-08T15:05:44.255Z,3.72
2023-09-08T15:08:13.656Z,3.58
2023-09-08T15:10:41.540Z,4.00
2023-09-08T15:13:09.382Z,3.95
2023-09-08T15:15:37.099Z,4.70
2023-09-08T15:18:04.883Z,3.97
2023-09-08T15:20:32.753Z,4.43
2023-09-08T15:23:00.377Z,3.75
2023-09-08T15:25:27.944Z,3.72
2023-09-08T15:27:55.786Z,3.95
2023-09-08T15:30:23.331Z,3.72
2023-09-08T15:32:50.918Z,4.07
2023-09-08T15:35:18.910Z,4.00
2023-09-08T15:37:46.480Z,3.42
2023-09-08T15:40:15.439Z,4.25
2023-09-08T15:42:44.586Z,4.30
2023-09-08T15:45:12.603Z,4.60
2023-09-08T15:47:40.342Z,6.22
2023-09-08T15:50:10.099Z,3.78
2023-09-08T15:52:38.120Z,4.28
2023-09-08T15:55:06.098Z,4.32
2023-09-08T15:57:33.987Z,4.03
2023-09-08T16:00:01.651Z,3.92
2023-09-08T16:02:36.589Z,4.62
2023-09-08T16:05:04.834Z,4.35
2023-09-08T16:07:32.526Z,4.53
2023-09-08T16:10:00.061Z,4.47
2023-09-08T16:12:27.931Z,4.18
2023-09-08T16:14:55.508Z,4.62
2023-09-08T16:17:23.763Z,4.20
2023-09-08T16:19:51.677Z,4.10
2023-09-08T16:22:19.302Z,4.40
2023-09-08T16:24:46.893Z,5.25
2023-09-08T16:27:14.745Z,4.12
2023-09-08T16:29:43.024Z,3.35
2023-09-08T16:32:11.849Z,4.37
2023-09-08T16:34:39.763Z,4.37
2023-09-08T16:37:07.417Z,3.70
2023-09-08T16:39:35.082Z,4.15
2023-09-08T16:42:03.752Z,4.20
2023-09-08T16:44:31.336Z,4.28
2023-09-08T16:46:59.120Z,5.32
2023-09-08T16:49:27.257Z,4.35
2023-09-08T16:51:57.837Z,4.53
2023-09-08T16:54:25.339Z,5.10
2023-09-08T16:56:53.192Z,4.65
2023-09-08T16:59:22.152Z,4.32
2023-09-08T17:01:53.048Z,4.87
2023-09-08T17:04:21.082Z,5.07
2023-09-08T17:06:49.211Z,5.32
2023-09-08T17:09:18.563Z,5.43
2023-09-08T17:11:46.357Z,5.12
2023-09-08T17:14:14.089Z,4.90
2023-09-08T17:16:41.580Z,5.18
2023-09-08T17:19:11.092Z,4.50
2023-09-08T17:21:38.718Z,4.85
2023-09-08T17:24:06.579Z,4.30
2023-09-08T17:26:34.390Z,4.78
2023-09-08T17:29:02.065Z,4.60
2023-09-08T17:31:31.680Z,3.55
2023-09-08T17:33:59.704Z,4.75
2023-09-08T17:36:27.872Z,4.10
2023-09-08T17:38:55.422Z,4.03
2023-09-08T17:41:23.220Z,4.80
2023-09-08T17:43:50.785Z,4.10
2023-09-08T17:46:18.412Z,3.45
2023-09-08T17:48:46.400Z,4.15
2023-09-08T17:51:13.978Z,3.92
2023-09-08T17:53:41.560Z,3.62
2023-09-08T17:56:09.475Z,3.25
2023-09-08T17:58:37.086Z,4.72
2023-09-08T18:01:04.676Z,4.15
2023-09-08T18:03:32.745Z,4.25
2023-09-08T18:06:00.441Z,3.70
2023-09-08T18:08:28.038Z,3.17
2023-09-08T18:11:04.456Z,4.93
2023-09-08T18:13:32.728Z,4.30
2023-09-08T18:16:02.157Z,3.67
2023-09-08T18:18:31.436Z,3.85
2023-09-08T18:20:59.355Z,3.35
2023-09-08T18:23:27.636Z,4.37
2023-09-08T18:25:57.810Z,4.57
2023-09-08T18:28:26.903Z,3.75
2023-09-08T18:30:54.993Z,3.87
2023-09-08T18:33:22.925Z,4.78
2023-09-08T18:35:50.495Z,4.72
2023-09-08T18:38:18.674Z,3.45
2023-09-08T18:40:47.253Z,3.10
2023-09-08T18:43:15.918Z,4.57
2023-09-08T18:45:43.971Z,3.75
2023-09-08T18:48:12.107Z,4.05
2023-09-08T18:50:39.707Z,3.20
2023-09-08T18:53:07.587Z,3.85
2023-09-08T18:55:35.678Z,3.78
2023-09-08T18:58:06.001Z,4.25
2023-09-08T19:00:34.432Z,3.80
2023-09-08T19:03:03.390Z,4.05
2023-09-08T19:05:31.496Z,4.40
2023-09-08T19:07:59.553Z,4.30
2023-09-08T19:10:27.184Z,3.47
2023-09-08T19:12:54.927Z,3.70
2023-09-08T19:15:22.883Z,4.03
2023-09-08T19:17:52.404Z,3.62
2023-09-08T19:20:20.441Z,4.53
2023-09-08T19:22:49.563Z,3.40
2023-09-08T19:25:17.459Z,3.90
2023-09-08T19:27:45.131Z,3.58
2023-09-08T19:30:13.325Z,3.67
2023-09-08T19:32:40.977Z,3.90
2023-09-08T19:35:09.179Z,3.12
2023-09-08T19:37:37.028Z,3.60
2023-09-08T19:40:06.600Z,3.85
2023-09-08T19:42:34.165Z,3.95
2023-09-08T19:45:04.311Z,3.58
2023-09-08T19:47:33.299Z,3.35
2023-09-08T19:50:06.262Z,3.78
2023-09-08T19:52:34.092Z,3.67
2023-09-08T19:55:01.632Z,3.80
2023-09-08T19:57:29.193Z,3.62
2023-09-08T19:59:57.059Z,3.15
2023-09-08T20:02:25.025Z,4.43
2023-09-08T20:04:53.014Z,2.92
2023-09-08T20:07:20.522Z,3.60
2023-09-08T20:09:48.472Z,4.00
2023-09-08T20:12:16.356Z,3.30
2023-09-08T20:14:44.078Z,3.75
2023-09-08T20:17:11.859Z,3.53
2023-09-08T20:19:39.967Z,3.03
2023-09-08T20:22:07.821Z,3.87
2023-09-08T20:24:35.351Z,3.90
2023-09-08T20:27:03.575Z,3.30
2023-09-08T20:29:31.611Z,4.22
2023-09-08T20:31:59.684Z,2.85
2023-09-08T20:34:27.771Z,3.87
2023-09-08T20:36:55.898Z,3.55
2023-09-08T20:39:24.220Z,3.70
2023-09-08T20:41:52.387Z,4.43
2023-09-08T20:44:19.919Z,4.10
2023-09-08T20:46:47.695Z,4.57
2023-09-08T20:49:15.617Z,3.85
2023-09-08T20:51:43.238Z,3.62
2023-09-08T20:54:10.761Z,3.97
2023-09-08T20:56:39.178Z,3.22
2023-09-08T20:59:06.698Z,4.37
2023-09-08T21:01:34.296Z,3.12
2023-09-08T21:04:02.236Z,3.10
2023-09-08T21:06:29.834Z,3.37
2023-09-08T21:08:57.377Z,4.93
2023-09-08T21:11:25.632Z,5.03
2023-09-08T21:13:53.335Z,5.03
2023-09-08T21:16:20.925Z,5.12
2023-09-08T21:18:48.696Z,4.72
2023-09-08T21:21:16.172Z,3.35
2023-09-08T21:23:43.725Z,3.28
2023-09-08T21:26:11.711Z,2.90
2023-09-08T21:28:39.300Z,3.87
2023-09-08T21:31:08.902Z,4.10
2023-09-08T21:33:38.827Z,4.22
2023-09-08T21:36:07.943Z,3.45
2023-09-08T21:38:35.723Z,4.32
2023-09-08T21:41:10.820Z,3.75
2023-09-08T21:43:39.249Z,3.22
2023-09-08T21:46:08.457Z,4.25
2023-09-08T21:48:36.934Z,4.12
2023-09-08T21:51:05.401Z,3.20
2023-09-08T21:53:33.380Z,3.25
2023-09-08T21:56:01.027Z,3.15
2023-09-08T21:58:28.779Z,3.00
2023-09-08T22:00:57.376Z,4.47
2023-09-08T22:03:25.423Z,3.12
2023-09-08T22:05:53.304Z,2.30
2023-09-08T22:08:20.824Z,2.95
2023-09-08T22:10:48.646Z,2.83
2023-09-08T22:13:16.115Z,2.92
2023-09-08T22:15:43.791Z,2.53
2023-09-08T22:18:11.689Z,3.58
2023-09-08T22:20:41.130Z,3.03
2023-09-08T22:23:10.077Z,4.32
2023-09-08T22:25:39.753Z,2.72
2023-09-08T22:28:07.818Z,3.45
2023-09-08T22:30:35.398Z,3.17
2023-09-08T22:33:04.419Z,4.22
2023-09-08T22:35:32.143Z,3.15
2023-09-08T22:37:59.731Z,3.72
2023-09-08T22:40:27.833Z,3.50
2023-09-08T22:42:55.473Z,3.72
2023-09-08T22:45:23.682Z,2.83
2023-09-08T22:47:51.581Z,2.80
2023-09-08T22:50:19.294Z,2.95
2023-09-08T22:52:46.927Z,4.45
2023-09-08T22:55:25.212Z,2.50
2023-09-08T22:57:54.639Z,2.90
2023-09-08T23:00:23.501Z,2.80
2023-09-08T23:02:51.230Z,3.12
2023-09-08T23:05:18.854Z,3.35
2023-09-08T23:07:46.848Z,3.62
2023-09-08T23:10:15.293Z,3.78
2023-09-08T23:12:43.019Z,3.65
2023-09-08T23:15:11.153Z,3.05
2023-09-08T23:17:39.282Z,3.00
2023-09-08T23:20:16.840Z,3.35
2023-09-08T23:22:45.294Z,2.78
2023-09-08T23:25:13.432Z,3.78
2023-09-08T23:27:41.073Z,3.55
2023-09-08T23:30:10.156Z,2.78
2023-09-08T23:32:37.896Z,3.60
2023-09-08T23:35:06.894Z,2.33
2023-09-08T23:37:34.803Z,3.42
2023-09-08T23:40:05.548Z,2.87
2023-09-08T23:42:33.072Z,3.53
2023-09-08T23:45:00.884Z,3.67
2023-09-08T23:47:28.382Z,4.18
2023-09-08T23:49:55.998Z,2.83
2023-09-08T23:52:23.749Z,3.33
2023-09-08T23:54:51.241Z,2.37
2023-09-08T23:57:18.804Z,3.42
2023-09-08T23:59:47.862Z,2.65
